sensor_id;sensor_type;location;lat;lon;timestamp;P1;durP1;ratioP1;P2;durP2;ratioP2
78458;SDS011;67753;42.684;23.330;2023-04-23T00:01:22;7.97;;;5.00;;
78458;SDS011;67753;42.684;23.330;2023-04-23T00:03:27;8.80;;;4.87;;
78458;SDS011;67753;42.684;23.330;2023-04-23T00:05:34;5.33;;;4.83;;
78458;SDS011;67753;42.684;23.330;2023-04-23T00:07:36;5.90;;;5.30;;
78458;SDS011;67753;42.684;23.330;2023-04-23T00:09:39;5.10;;;4.50;;
78458;SDS011;67753;42.684;23.330;2023-04-23T00:11:41;5.40;;;5.00;;
78458;SDS011;67753;42.684;23.330;2023-04-23T00:13:43;6.67;;;4.93;;
78458;SDS011;67753;42.684;23.330;2023-04-23T00:15:49;7.90;;;5.10;;
78458;SDS011;67753;42.684;23.330;2023-04-23T00:17:50;6.03;;;5.00;;
78458;SDS011;67753;42.684;23.330;2023-04-23T00:19:52;8.07;;;4.97;;
78458;SDS011;67753;42.684;23.330;2023-04-23T00:21:55;5.63;;;4.73;;
78458;SDS011;67753;42.684;23.330;2023-04-23T00:23:57;5.70;;;5.20;;
78458;SDS011;67753;42.684;23.330;2023-04-23T00:25:58;5.30;;;4.90;;
78458;SDS011;67753;42.684;23.330;2023-04-23T00:28:00;5.17;;;4.67;;
78458;SDS011;67753;42.684;23.330;2023-04-23T00:30:02;5.63;;;5.13;;
78458;SDS011;67753;42.684;23.330;2023-04-23T00:32:03;7.63;;;5.00;;
78458;SDS011;67753;42.684;23.330;2023-04-23T00:34:05;5.73;;;5.23;;
78458;SDS011;67753;42.684;23.330;2023-04-23T00:36:07;6.20;;;5.17;;
78458;SDS011;67753;42.684;23.330;2023-04-23T00:38:10;6.27;;;5.07;;
78458;SDS011;67753;42.684;23.330;2023-04-23T00:40:12;6.43;;;5.80;;
78458;SDS011;67753;42.684;23.330;2023-04-23T00:42:14;5.77;;;5.33;;
78458;SDS011;67753;42.684;23.330;2023-04-23T00:44:16;7.30;;;6.00;;
78458;SDS011;67753;42.684;23.330;2023-04-23T00:46:17;6.13;;;5.67;;
78458;SDS011;67753;42.684;23.330;2023-04-23T00:48:19;6.17;;;5.73;;
78458;SDS011;67753;42.684;23.330;2023-04-23T00:50:21;6.33;;;5.77;;
78458;SDS011;67753;42.684;23.330;2023-04-23T00:52:23;7.13;;;5.70;;
78458;SDS011;67753;42.684;23.330;2023-04-23T00:54:25;5.97;;;5.47;;
78458;SDS011;67753;42.684;23.330;2023-04-23T00:56:27;6.37;;;5.77;;
78458;SDS011;67753;42.684;23.330;2023-04-23T00:58:28;6.67;;;5.90;;
78458;SDS011;67753;42.684;23.330;2023-04-23T01:00:30;6.50;;;6.00;;
78458;SDS011;67753;42.684;23.330;2023-04-23T01:02:32;6.23;;;5.63;;
78458;SDS011;67753;42.684;23.330;2023-04-23T01:04:35;7.03;;;6.13;;
78458;SDS011;67753;42.684;23.330;2023-04-23T01:06:37;6.37;;;5.87;;
78458;SDS011;67753;42.684;23.330;2023-04-23T01:08:39;6.90;;;6.20;;
78458;SDS011;67753;42.684;23.330;2023-04-23T01:10:43;6.77;;;6.17;;
78458;SDS011;67753;42.684;23.330;2023-04-23T01:12:46;7.63;;;6.80;;
78458;SDS011;67753;42.684;23.330;2023-04-23T01:14:48;7.77;;;7.07;;
78458;SDS011;67753;42.684;23.330;2023-04-23T01:16:50;10.03;;;6.60;;
78458;SDS011;67753;42.684;23.330;2023-04-23T01:18:52;7.03;;;6.43;;
78458;SDS011;67753;42.684;23.330;2023-04-23T01:20:55;7.57;;;6.87;;
78458;SDS011;67753;42.684;23.330;2023-04-23T01:22:58;7.17;;;6.53;;
78458;SDS011;67753;42.684;23.330;2023-04-23T01:25:00;7.37;;;6.57;;
78458;SDS011;67753;42.684;23.330;2023-04-23T01:27:02;8.10;;;6.90;;
78458;SDS011;67753;42.684;23.330;2023-04-23T01:29:04;7.63;;;6.87;;
78458;SDS011;67753;42.684;23.330;2023-04-23T01:31:06;7.77;;;7.17;;
78458;SDS011;67753;42.684;23.330;2023-04-23T01:33:07;7.40;;;6.80;;
78458;SDS011;67753;42.684;23.330;2023-04-23T01:35:10;8.17;;;7.47;;
78458;SDS011;67753;42.684;23.330;2023-04-23T01:37:12;8.80;;;8.00;;
78458;SDS011;67753;42.684;23.330;2023-04-23T01:39:15;8.03;;;7.27;;
78458;SDS011;67753;42.684;23.330;2023-04-23T01:41:17;7.50;;;6.93;;
78458;SDS011;67753;42.684;23.330;2023-04-23T01:43:20;8.67;;;7.70;;
78458;SDS011;67753;42.684;23.330;2023-04-23T01:45:22;8.17;;;7.47;;
78458;SDS011;67753;42.684;23.330;2023-04-23T01:47:24;9.03;;;8.20;;
78458;SDS011;67753;42.684;23.330;2023-04-23T01:49:26;8.90;;;8.10;;
78458;SDS011;67753;42.684;23.330;2023-04-23T01:51:28;9.00;;;8.10;;
78458;SDS011;67753;42.684;23.330;2023-04-23T01:53:29;8.67;;;7.97;;
78458;SDS011;67753;42.684;23.330;2023-04-23T01:55:33;9.00;;;7.97;;
78458;SDS011;67753;42.684;23.330;2023-04-23T01:57:34;8.90;;;8.13;;
78458;SDS011;67753;42.684;23.330;2023-04-23T01:59:36;8.07;;;7.30;;
78458;SDS011;67753;42.684;23.330;2023-04-23T02:01:41;8.73;;;7.93;;
78458;SDS011;67753;42.684;23.330;2023-04-23T02:03:43;10.67;;;7.50;;
78458;SDS011;67753;42.684;23.330;2023-04-23T02:05:45;7.77;;;7.13;;
78458;SDS011;67753;42.684;23.330;2023-04-23T02:07:48;9.17;;;8.30;;
78458;SDS011;67753;42.684;23.330;2023-04-23T02:09:49;8.83;;;7.40;;
78458;SDS011;67753;42.684;23.330;2023-04-23T02:11:53;8.13;;;7.47;;
78458;SDS011;67753;42.684;23.330;2023-04-23T02:13:56;12.87;;;7.90;;
78458;SDS011;67753;42.684;23.330;2023-04-23T02:15:58;10.10;;;8.33;;
78458;SDS011;67753;42.684;23.330;2023-04-23T02:18:00;9.67;;;8.63;;
78458;SDS011;67753;42.684;23.330;2023-04-23T02:20:02;9.57;;;8.67;;
78458;SDS011;67753;42.684;23.330;2023-04-23T02:22:04;8.73;;;8.00;;
78458;SDS011;67753;42.684;23.330;2023-04-23T02:24:06;10.07;;;9.00;;
78458;SDS011;67753;42.684;23.330;2023-04-23T02:26:10;13.47;;;9.60;;
78458;SDS011;67753;42.684;23.330;2023-04-23T02:28:13;12.53;;;9.17;;
78458;SDS011;67753;42.684;23.330;2023-04-23T02:30:14;12.00;;;8.43;;
78458;SDS011;67753;42.684;23.330;2023-04-23T02:32:16;9.70;;;8.83;;
78458;SDS011;67753;42.684;23.330;2023-04-23T02:34:17;10.37;;;9.20;;
78458;SDS011;67753;42.684;23.330;2023-04-23T02:36:19;9.27;;;8.17;;
78458;SDS011;67753;42.684;23.330;2023-04-23T02:38:21;9.70;;;8.80;;
78458;SDS011;67753;42.684;23.330;2023-04-23T02:40:22;11.10;;;10.03;;
78458;SDS011;67753;42.684;23.330;2023-04-23T02:42:24;10.80;;;9.67;;
78458;SDS011;67753;42.684;23.330;2023-04-23T02:44:27;10.83;;;9.73;;
78458;SDS011;67753;42.684;23.330;2023-04-23T02:46:30;10.07;;;8.90;;
78458;SDS011;67753;42.684;23.330;2023-04-23T02:48:33;10.00;;;9.07;;
78458;SDS011;67753;42.684;23.330;2023-04-23T02:50:35;10.00;;;9.00;;
78458;SDS011;67753;42.684;23.330;2023-04-23T02:52:39;9.50;;;8.60;;
78458;SDS011;67753;42.684;23.330;2023-04-23T02:54:41;10.17;;;9.13;;
78458;SDS011;67753;42.684;23.330;2023-04-23T02:56:43;11.93;;;9.73;;
78458;SDS011;67753;42.684;23.330;2023-04-23T02:58:44;12.10;;;10.10;;
78458;SDS011;67753;42.684;23.330;2023-04-23T03:00:47;10.60;;;9.60;;
78458;SDS011;67753;42.684;23.330;2023-04-23T03:02:49;9.50;;;8.77;;
78458;SDS011;67753;42.684;23.330;2023-04-23T03:04:51;9.50;;;8.73;;
78458;SDS011;67753;42.684;23.330;2023-04-23T03:06:53;10.67;;;9.50;;
78458;SDS011;67753;42.684;23.330;2023-04-23T03:08:54;10.40;;;9.43;;
78458;SDS011;67753;42.684;23.330;2023-04-23T03:10:56;9.57;;;8.80;;
78458;SDS011;67753;42.684;23.330;2023-04-23T03:12:57;10.20;;;9.20;;
78458;SDS011;67753;42.684;23.330;2023-04-23T03:14:59;10.00;;;9.13;;
78458;SDS011;67753;42.684;23.330;2023-04-23T03:17:02;9.53;;;8.63;;
78458;SDS011;67753;42.684;23.330;2023-04-23T03:19:04;9.63;;;8.63;;
78458;SDS011;67753;42.684;23.330;2023-04-23T03:21:05;12.73;;;9.90;;
78458;SDS011;67753;42.684;23.330;2023-04-23T03:23:07;9.63;;;8.67;;
78458;SDS011;67753;42.684;23.330;2023-04-23T03:25:09;9.53;;;8.60;;
78458;SDS011;67753;42.684;23.330;2023-04-23T03:27:10;11.27;;;8.70;;
78458;SDS011;67753;42.684;23.330;2023-04-23T03:29:12;11.30;;;8.97;;
78458;SDS011;67753;42.684;23.330;2023-04-23T03:31:13;10.60;;;9.70;;
78458;SDS011;67753;42.684;23.330;2023-04-23T03:33:16;10.03;;;9.10;;
78458;SDS011;67753;42.684;23.330;2023-04-23T03:35:18;10.63;;;9.53;;
78458;SDS011;67753;42.684;23.330;2023-04-23T03:37:20;9.93;;;8.90;;
78458;SDS011;67753;42.684;23.330;2023-04-23T03:39:21;10.83;;;9.73;;
78458;SDS011;67753;42.684;23.330;2023-04-23T03:41:23;10.50;;;9.53;;
78458;SDS011;67753;42.684;23.330;2023-04-23T03:43:25;10.20;;;8.97;;
78458;SDS011;67753;42.684;23.330;2023-04-23T03:45:26;10.50;;;8.97;;
78458;SDS011;67753;42.684;23.330;2023-04-23T03:47:28;10.93;;;9.20;;
78458;SDS011;67753;42.684;23.330;2023-04-23T03:49:31;11.43;;;9.63;;
78458;SDS011;67753;42.684;23.330;2023-04-23T03:51:33;10.70;;;9.67;;
78458;SDS011;67753;42.684;23.330;2023-04-23T03:53:34;10.87;;;9.47;;
78458;SDS011;67753;42.684;23.330;2023-04-23T03:55:36;10.80;;;9.70;;
78458;SDS011;67753;42.684;23.330;2023-04-23T03:57:38;13.40;;;10.27;;
78458;SDS011;67753;42.684;23.330;2023-04-23T03:59:39;9.93;;;8.87;;
78458;SDS011;67753;42.684;23.330;2023-04-23T04:01:41;11.07;;;9.53;;
78458;SDS011;67753;42.684;23.330;2023-04-23T04:03:43;11.20;;;10.03;;
78458;SDS011;67753;42.684;23.330;2023-04-23T04:05:46;11.00;;;10.00;;
78458;SDS011;67753;42.684;23.330;2023-04-23T04:07:48;10.87;;;9.60;;
78458;SDS011;67753;42.684;23.330;2023-04-23T04:09:49;13.97;;;10.10;;
78458;SDS011;67753;42.684;23.330;2023-04-23T04:11:51;11.93;;;10.13;;
78458;SDS011;67753;42.684;23.330;2023-04-23T04:13:53;11.67;;;10.50;;
78458;SDS011;67753;42.684;23.330;2023-04-23T04:15:54;11.37;;;10.27;;
78458;SDS011;67753;42.684;23.330;2023-04-23T04:17:56;11.00;;;10.00;;
78458;SDS011;67753;42.684;23.330;2023-04-23T04:20:00;12.23;;;11.03;;
78458;SDS011;67753;42.684;23.330;2023-04-23T04:22:03;10.53;;;9.53;;
78458;SDS011;67753;42.684;23.330;2023-04-23T04:24:06;12.27;;;11.10;;
78458;SDS011;67753;42.684;23.330;2023-04-23T04:26:07;11.00;;;10.00;;
78458;SDS011;67753;42.684;23.330;2023-04-23T04:28:09;11.27;;;9.97;;
78458;SDS011;67753;42.684;23.330;2023-04-23T04:30:14;11.97;;;10.87;;
78458;SDS011;67753;42.684;23.330;2023-04-23T04:32:17;10.97;;;9.50;;
78458;SDS011;67753;42.684;23.330;2023-04-23T04:34:19;12.67;;;10.30;;
78458;SDS011;67753;42.684;23.330;2023-04-23T04:36:21;10.90;;;9.83;;
78458;SDS011;67753;42.684;23.330;2023-04-23T04:38:25;10.57;;;9.57;;
78458;SDS011;67753;42.684;23.330;2023-04-23T04:40:27;12.03;;;10.00;;
78458;SDS011;67753;42.684;23.330;2023-04-23T04:42:30;10.57;;;9.67;;
78458;SDS011;67753;42.684;23.330;2023-04-23T04:44:32;10.53;;;9.50;;
78458;SDS011;67753;42.684;23.330;2023-04-23T04:46:36;12.97;;;10.27;;
78458;SDS011;67753;42.684;23.330;2023-04-23T04:48:39;11.80;;;10.70;;
78458;SDS011;67753;42.684;23.330;2023-04-23T04:50:41;11.80;;;10.40;;
78458;SDS011;67753;42.684;23.330;2023-04-23T04:52:42;13.80;;;11.50;;
78458;SDS011;67753;42.684;23.330;2023-04-23T04:54:45;13.37;;;12.07;;
78458;SDS011;67753;42.684;23.330;2023-04-23T04:56:47;13.80;;;12.37;;
78458;SDS011;67753;42.684;23.330;2023-04-23T04:58:48;14.53;;;13.00;;
78458;SDS011;67753;42.684;23.330;2023-04-23T05:00:50;12.47;;;11.27;;
78458;SDS011;67753;42.684;23.330;2023-04-23T05:02:51;11.70;;;10.67;;
78458;SDS011;67753;42.684;23.330;2023-04-23T05:04:53;11.40;;;10.30;;
78458;SDS011;67753;42.684;23.330;2023-04-23T05:06:55;10.40;;;9.40;;
78458;SDS011;67753;42.684;23.330;2023-04-23T05:08:56;10.87;;;9.77;;
78458;SDS011;67753;42.684;23.330;2023-04-23T05:10:59;10.40;;;9.50;;
78458;SDS011;67753;42.684;23.330;2023-04-23T05:13:02;10.70;;;9.60;;
78458;SDS011;67753;42.684;23.330;2023-04-23T05:15:05;10.30;;;9.30;;
78458;SDS011;67753;42.684;23.330;2023-04-23T05:17:07;9.90;;;9.00;;
78458;SDS011;67753;42.684;23.330;2023-04-23T05:19:08;9.80;;;8.90;;
78458;SDS011;67753;42.684;23.330;2023-04-23T05:21:10;14.37;;;13.13;;
78458;SDS011;67753;42.684;23.330;2023-04-23T05:23:12;31.80;;;28.63;;
78458;SDS011;67753;42.684;23.330;2023-04-23T05:25:13;56.03;;;49.60;;
78458;SDS011;67753;42.684;23.330;2023-04-23T05:27:17;46.33;;;39.53;;
78458;SDS011;67753;42.684;23.330;2023-04-23T05:29:19;30.07;;;24.90;;
78458;SDS011;67753;42.684;23.330;2023-04-23T05:31:20;30.13;;;26.80;;
78458;SDS011;67753;42.684;23.330;2023-04-23T05:33:22;39.37;;;33.90;;
78458;SDS011;67753;42.684;23.330;2023-04-23T05:35:25;37.83;;;33.77;;
78458;SDS011;67753;42.684;23.330;2023-04-23T05:37:26;19.07;;;17.17;;
78458;SDS011;67753;42.684;23.330;2023-04-23T05:39:28;29.17;;;25.67;;
78458;SDS011;67753;42.684;23.330;2023-04-23T05:41:30;27.20;;;22.17;;
78458;SDS011;67753;42.684;23.330;2023-04-23T05:43:33;24.53;;;21.93;;
78458;SDS011;67753;42.684;23.330;2023-04-23T05:45:35;31.00;;;25.33;;
78458;SDS011;67753;42.684;23.330;2023-04-23T05:47:36;18.63;;;16.80;;
78458;SDS011;67753;42.684;23.330;2023-04-23T05:49:38;19.83;;;17.93;;
78458;SDS011;67753;42.684;23.330;2023-04-23T05:51:39;16.83;;;15.23;;
78458;SDS011;67753;42.684;23.330;2023-04-23T05:53:42;19.33;;;17.63;;
78458;SDS011;67753;42.684;23.330;2023-04-23T05:55:43;19.53;;;17.60;;
78458;SDS011;67753;42.684;23.330;2023-04-23T05:57:45;16.80;;;15.37;;
78458;SDS011;67753;42.684;23.330;2023-04-23T05:59:50;13.40;;;12.13;;
78458;SDS011;67753;42.684;23.330;2023-04-23T06:01:52;10.63;;;9.63;;
78458;SDS011;67753;42.684;23.330;2023-04-23T06:03:53;12.53;;;9.30;;
78458;SDS011;67753;42.684;23.330;2023-04-23T06:05:55;9.43;;;8.63;;
78458;SDS011;67753;42.684;23.330;2023-04-23T06:07:57;7.90;;;7.20;;
78458;SDS011;67753;42.684;23.330;2023-04-23T06:09:59;11.60;;;7.77;;
78458;SDS011;67753;42.684;23.330;2023-04-23T06:12:00;9.93;;;8.17;;
78458;SDS011;67753;42.684;23.330;2023-04-23T06:14:02;9.20;;;8.33;;
78458;SDS011;67753;42.684;23.330;2023-04-23T06:16:05;9.43;;;8.60;;
78458;SDS011;67753;42.684;23.330;2023-04-23T06:18:07;8.27;;;7.47;;
78458;SDS011;67753;42.684;23.330;2023-04-23T06:20:09;8.63;;;7.93;;
78458;SDS011;67753;42.684;23.330;2023-04-23T06:22:11;9.57;;;8.73;;
78458;SDS011;67753;42.684;23.330;2023-04-23T06:24:12;9.07;;;8.27;;
78458;SDS011;67753;42.684;23.330;2023-04-23T06:26:15;9.57;;;8.67;;
78458;SDS011;67753;42.684;23.330;2023-04-23T06:28:17;8.93;;;8.03;;
78458;SDS011;67753;42.684;23.330;2023-04-23T06:30:18;9.30;;;8.40;;
78458;SDS011;67753;42.684;23.330;2023-04-23T06:32:23;9.63;;;8.73;;
78458;SDS011;67753;42.684;23.330;2023-04-23T06:34:25;8.53;;;7.77;;
78458;SDS011;67753;42.684;23.330;2023-04-23T06:36:27;9.13;;;8.43;;
78458;SDS011;67753;42.684;23.330;2023-04-23T06:38:29;9.00;;;8.20;;
78458;SDS011;67753;42.684;23.330;2023-04-23T06:40:31;8.87;;;7.97;;
78458;SDS011;67753;42.684;23.330;2023-04-23T06:42:32;9.00;;;8.27;;
78458;SDS011;67753;42.684;23.330;2023-04-23T06:44:34;9.43;;;8.57;;
78458;SDS011;67753;42.684;23.330;2023-04-23T06:46:36;9.53;;;8.63;;
78458;SDS011;67753;42.684;23.330;2023-04-23T06:48:41;9.63;;;8.73;;
78458;SDS011;67753;42.684;23.330;2023-04-23T06:50:43;9.53;;;8.63;;
78458;SDS011;67753;42.684;23.330;2023-04-23T06:52:45;8.43;;;7.70;;
78458;SDS011;67753;42.684;23.330;2023-04-23T06:54:46;9.00;;;8.03;;
78458;SDS011;67753;42.684;23.330;2023-04-23T06:56:48;9.50;;;8.60;;
78458;SDS011;67753;42.684;23.330;2023-04-23T06:58:50;9.70;;;8.90;;
78458;SDS011;67753;42.684;23.330;2023-04-23T07:00:51;10.63;;;9.17;;
78458;SDS011;67753;42.684;23.330;2023-04-23T07:02:53;10.37;;;9.37;;
78458;SDS011;67753;42.684;23.330;2023-04-23T07:04:56;9.60;;;8.80;;
78458;SDS011;67753;42.684;23.330;2023-04-23T07:06:57;12.23;;;8.40;;
78458;SDS011;67753;42.684;23.330;2023-04-23T07:08:59;11.27;;;8.63;;
78458;SDS011;67753;42.684;23.330;2023-04-23T07:11:01;9.17;;;7.97;;
78458;SDS011;67753;42.684;23.330;2023-04-23T07:13:02;8.77;;;8.07;;
78458;SDS011;67753;42.684;23.330;2023-04-23T07:15:05;9.87;;;9.07;;
78458;SDS011;67753;42.684;23.330;2023-04-23T07:17:07;12.33;;;9.33;;
78458;SDS011;67753;42.684;23.330;2023-04-23T07:19:10;9.47;;;8.40;;
78458;SDS011;67753;42.684;23.330;2023-04-23T07:21:13;9.90;;;8.90;;
78458;SDS011;67753;42.684;23.330;2023-04-23T07:23:14;11.13;;;8.53;;
78458;SDS011;67753;42.684;23.330;2023-04-23T07:25:16;9.90;;;9.00;;
78458;SDS011;67753;42.684;23.330;2023-04-23T07:27:18;9.90;;;9.10;;
78458;SDS011;67753;42.684;23.330;2023-04-23T07:29:20;9.60;;;8.80;;
78458;SDS011;67753;42.684;23.330;2023-04-23T07:31:22;10.00;;;9.00;;
78458;SDS011;67753;42.684;23.330;2023-04-23T07:33:24;8.53;;;7.73;;
78458;SDS011;67753;42.684;23.330;2023-04-23T07:35:25;8.90;;;8.17;;
78458;SDS011;67753;42.684;23.330;2023-04-23T07:37:28;9.37;;;7.73;;
78458;SDS011;67753;42.684;23.330;2023-04-23T07:39:30;12.27;;;11.27;;
78458;SDS011;67753;42.684;23.330;2023-04-23T07:41:33;11.93;;;10.93;;
78458;SDS011;67753;42.684;23.330;2023-04-23T07:43:36;13.93;;;12.63;;
78458;SDS011;67753;42.684;23.330;2023-04-23T07:45:38;9.30;;;8.40;;
78458;SDS011;67753;42.684;23.330;2023-04-23T07:47:40;9.93;;;9.03;;
78458;SDS011;67753;42.684;23.330;2023-04-23T07:49:41;9.97;;;9.03;;
78458;SDS011;67753;42.684;23.330;2023-04-23T07:51:43;8.83;;;8.10;;
78458;SDS011;67753;42.684;23.330;2023-04-23T07:53:49;12.20;;;9.13;;
78458;SDS011;67753;42.684;23.330;2023-04-23T07:55:53;9.70;;;8.33;;
78458;SDS011;67753;42.684;23.330;2023-04-23T07:57:54;9.10;;;8.30;;
78458;SDS011;67753;42.684;23.330;2023-04-23T07:59:56;9.27;;;8.47;;
78458;SDS011;67753;42.684;23.330;2023-04-23T08:01:57;10.20;;;9.23;;
78458;SDS011;67753;42.684;23.330;2023-04-23T08:03:59;9.10;;;8.20;;
78458;SDS011;67753;42.684;23.330;2023-04-23T08:06:02;10.30;;;9.30;;
78458;SDS011;67753;42.684;23.330;2023-04-23T08:08:04;9.57;;;8.73;;
78458;SDS011;67753;42.684;23.330;2023-04-23T08:10:09;9.60;;;8.47;;
78458;SDS011;67753;42.684;23.330;2023-04-23T08:12:11;11.47;;;9.00;;
78458;SDS011;67753;42.684;23.330;2023-04-23T08:14:14;9.90;;;9.00;;
78458;SDS011;67753;42.684;23.330;2023-04-23T08:16:16;10.27;;;9.37;;
78458;SDS011;67753;42.684;23.330;2023-04-23T08:18:17;9.73;;;8.83;;
78458;SDS011;67753;42.684;23.330;2023-04-23T08:20:19;8.97;;;8.30;;
78458;SDS011;67753;42.684;23.330;2023-04-23T08:22:20;10.50;;;9.43;;
78458;SDS011;67753;42.684;23.330;2023-04-23T08:24:22;8.00;;;7.30;;
78458;SDS011;67753;42.684;23.330;2023-04-23T08:26:25;9.57;;;8.77;;
78458;SDS011;67753;42.684;23.330;2023-04-23T08:28:27;9.30;;;8.37;;
78458;SDS011;67753;42.684;23.330;2023-04-23T08:30:28;10.33;;;8.50;;
78458;SDS011;67753;42.684;23.330;2023-04-23T08:32:30;8.73;;;8.10;;
78458;SDS011;67753;42.684;23.330;2023-04-23T08:34:31;10.30;;;9.07;;
78458;SDS011;67753;42.684;23.330;2023-04-23T08:36:33;9.80;;;8.90;;
78458;SDS011;67753;42.684;23.330;2023-04-23T08:38:35;9.50;;;8.70;;
78458;SDS011;67753;42.684;23.330;2023-04-23T08:40:37;9.43;;;8.47;;
78458;SDS011;67753;42.684;23.330;2023-04-23T08:42:42;10.53;;;8.40;;
78458;SDS011;67753;42.684;23.330;2023-04-23T08:44:45;9.73;;;8.50;;
78458;SDS011;67753;42.684;23.330;2023-04-23T08:46:47;9.10;;;8.30;;
78458;SDS011;67753;42.684;23.330;2023-04-23T08:48:49;9.00;;;8.17;;
78458;SDS011;67753;42.684;23.330;2023-04-23T08:50:53;9.50;;;8.77;;
78458;SDS011;67753;42.684;23.330;2023-04-23T08:52:55;9.63;;;8.83;;
78458;SDS011;67753;42.684;23.330;2023-04-23T08:54:58;9.43;;;8.52;;
78458;SDS011;67753;42.684;23.330;2023-04-23T08:57:00;9.00;;;8.25;;
78458;SDS011;67753;42.684;23.330;2023-04-23T08:59:03;10.15;;;8.60;;
78458;SDS011;67753;42.684;23.330;2023-04-23T09:01:06;9.32;;;8.52;;
78458;SDS011;67753;42.684;23.330;2023-04-23T09:03:08;9.23;;;8.32;;
78458;SDS011;67753;42.684;23.330;2023-04-23T09:05:10;10.00;;;8.20;;
78458;SDS011;67753;42.684;23.330;2023-04-23T09:07:12;9.10;;;8.40;;
78458;SDS011;67753;42.684;23.330;2023-04-23T09:09:15;9.18;;;8.48;;
78458;SDS011;67753;42.684;23.330;2023-04-23T09:11:17;8.35;;;7.65;;
78458;SDS011;67753;42.684;23.330;2023-04-23T09:13:19;9.10;;;8.30;;
78458;SDS011;67753;42.684;23.330;2023-04-23T09:15:23;9.25;;;8.32;;
78458;SDS011;67753;42.684;23.330;2023-04-23T09:17:27;10.27;;;8.95;;
78458;SDS011;67753;42.684;23.330;2023-04-23T09:19:28;9.73;;;8.18;;
78458;SDS011;67753;42.684;23.330;2023-04-23T09:21:31;8.40;;;7.47;;
78458;SDS011;67753;42.684;23.330;2023-04-23T09:23:37;8.93;;;8.23;;
78458;SDS011;67753;42.684;23.330;2023-04-23T09:25:40;8.60;;;7.70;;
78458;SDS011;67753;42.684;23.330;2023-04-23T09:27:42;9.33;;;8.53;;
78458;SDS011;67753;42.684;23.330;2023-04-23T09:29:43;8.55;;;7.80;;
78458;SDS011;67753;42.684;23.330;2023-04-23T09:31:47;10.47;;;7.90;;
78458;SDS011;67753;42.684;23.330;2023-04-23T09:33:52;11.45;;;8.18;;
78458;SDS011;67753;42.684;23.330;2023-04-23T09:35:54;9.13;;;8.32;;
78458;SDS011;67753;42.684;23.330;2023-04-23T09:37:56;8.63;;;7.80;;
78458;SDS011;67753;42.684;23.330;2023-04-23T09:39:58;8.93;;;8.02;;
78458;SDS011;67753;42.684;23.330;2023-04-23T09:42:01;10.55;;;7.30;;
78458;SDS011;67753;42.684;23.330;2023-04-23T09:44:03;8.18;;;7.40;;
78458;SDS011;67753;42.684;23.330;2023-04-23T09:46:05;9.10;;;8.20;;
78458;SDS011;67753;42.684;23.330;2023-04-23T09:48:08;8.68;;;7.95;;
78458;SDS011;67753;42.684;23.330;2023-04-23T09:50:10;8.35;;;7.70;;
78458;SDS011;67753;42.684;23.330;2023-04-23T09:52:11;8.10;;;7.45;;
78458;SDS011;67753;42.684;23.330;2023-04-23T09:54:13;7.68;;;7.07;;
78458;SDS011;67753;42.684;23.330;2023-04-23T09:56:15;8.07;;;7.38;;
78458;SDS011;67753;42.684;23.330;2023-04-23T09:58:20;9.27;;;7.85;;
78458;SDS011;67753;42.684;23.330;2023-04-23T10:00:25;8.27;;;7.53;;
78458;SDS011;67753;42.684;23.330;2023-04-23T10:02:33;7.60;;;7.00;;
78458;SDS011;67753;42.684;23.330;2023-04-23T10:04:43;8.43;;;7.47;;
78458;SDS011;67753;42.684;23.330;2023-04-23T10:06:45;8.20;;;7.55;;
78458;SDS011;67753;42.684;23.330;2023-04-23T10:08:46;7.78;;;7.18;;
78458;SDS011;67753;42.684;23.330;2023-04-23T10:10:48;7.68;;;7.05;;
78458;SDS011;67753;42.684;23.330;2023-04-23T10:12:50;8.18;;;7.40;;
78458;SDS011;67753;42.684;23.330;2023-04-23T10:14:53;7.95;;;7.15;;
78458;SDS011;67753;42.684;23.330;2023-04-23T10:16:57;8.68;;;7.05;;
78458;SDS011;67753;42.684;23.330;2023-04-23T10:18:58;8.32;;;6.88;;
78458;SDS011;67753;42.684;23.330;2023-04-23T10:21:03;7.72;;;7.03;;
78458;SDS011;67753;42.684;23.330;2023-04-23T10:23:06;6.80;;;6.20;;
78458;SDS011;67753;42.684;23.330;2023-04-23T10:25:09;7.85;;;7.07;;
78458;SDS011;67753;42.684;23.330;2023-04-23T10:27:12;7.78;;;6.70;;
78458;SDS011;67753;42.684;23.330;2023-04-23T10:29:15;7.45;;;6.65;;
78458;SDS011;67753;42.684;23.330;2023-04-23T10:31:17;7.88;;;7.18;;
78458;SDS011;67753;42.684;23.330;2023-04-23T10:33:20;7.75;;;7.15;;
78458;SDS011;67753;42.684;23.330;2023-04-23T10:35:22;7.63;;;6.90;;
78458;SDS011;67753;42.684;23.330;2023-04-23T10:37:25;7.50;;;6.82;;
78458;SDS011;67753;42.684;23.330;2023-04-23T10:39:29;6.97;;;6.38;;
78458;SDS011;67753;42.684;23.330;2023-04-23T10:41:33;6.88;;;6.30;;
78458;SDS011;67753;42.684;23.330;2023-04-23T10:43:35;8.02;;;6.75;;
78458;SDS011;67753;42.684;23.330;2023-04-23T10:45:37;6.97;;;6.25;;
78458;SDS011;67753;42.684;23.330;2023-04-23T10:47:38;7.03;;;6.43;;
78458;SDS011;67753;42.684;23.330;2023-04-23T10:49:40;13.63;;;12.23;;
78458;SDS011;67753;42.684;23.330;2023-04-23T10:51:44;11.07;;;10.02;;
78458;SDS011;67753;42.684;23.330;2023-04-23T10:53:48;18.38;;;16.48;;
78458;SDS011;67753;42.684;23.330;2023-04-23T10:56:03;8.38;;;6.90;;
78458;SDS011;67753;42.684;23.330;2023-04-23T10:58:05;10.63;;;9.27;;
78458;SDS011;67753;42.684;23.330;2023-04-23T11:00:08;7.28;;;6.40;;
78458;SDS011;67753;42.684;23.330;2023-04-23T11:02:12;12.45;;;10.40;;
78458;SDS011;67753;42.684;23.330;2023-04-23T11:04:20;19.60;;;17.55;;
78458;SDS011;67753;42.684;23.330;2023-04-23T11:08:52;19.80;;;17.70;;
78458;SDS011;67753;42.684;23.330;2023-04-23T11:10:55;8.25;;;7.55;;
78458;SDS011;67753;42.684;23.330;2023-04-23T11:15:15;6.38;;;5.88;;
78458;SDS011;67753;42.684;23.330;2023-04-23T11:17:20;6.85;;;6.13;;
78458;SDS011;67753;42.684;23.330;2023-04-23T11:19:23;7.80;;;7.00;;
78458;SDS011;67753;42.684;23.330;2023-04-23T11:23:41;11.98;;;10.27;;
78458;SDS011;67753;42.684;23.330;2023-04-23T11:25:47;7.72;;;6.93;;
78458;SDS011;67753;42.684;23.330;2023-04-23T11:27:49;10.25;;;8.68;;
78458;SDS011;67753;42.684;23.330;2023-04-23T11:29:51;7.00;;;6.32;;
78458;SDS011;67753;42.684;23.330;2023-04-23T11:31:53;10.20;;;8.75;;
78458;SDS011;67753;42.684;23.330;2023-04-23T11:33:55;12.00;;;10.82;;
78458;SDS011;67753;42.684;23.330;2023-04-23T11:35:57;6.78;;;5.35;;
78458;SDS011;67753;42.684;23.330;2023-04-23T11:37:58;9.23;;;8.32;;
78458;SDS011;67753;42.684;23.330;2023-04-23T11:40:04;10.80;;;8.45;;
78458;SDS011;67753;42.684;23.330;2023-04-23T11:42:09;12.45;;;11.25;;
78458;SDS011;67753;42.684;23.330;2023-04-23T11:44:12;5.68;;;5.15;;
78458;SDS011;67753;42.684;23.330;2023-04-23T11:46:13;8.80;;;7.13;;
78458;SDS011;67753;42.684;23.330;2023-04-23T11:48:15;9.88;;;8.38;;
78458;SDS011;67753;42.684;23.330;2023-04-23T11:50:18;6.43;;;5.78;;
78458;SDS011;67753;42.684;23.330;2023-04-23T11:52:20;6.57;;;5.43;;
78458;SDS011;67753;42.684;23.330;2023-04-23T11:54:24;6.00;;;5.43;;
78458;SDS011;67753;42.684;23.330;2023-04-23T11:56:28;5.47;;;5.07;;
78458;SDS011;67753;42.684;23.330;2023-04-23T11:58:31;5.13;;;4.63;;
78458;SDS011;67753;42.684;23.330;2023-04-23T12:00:34;7.07;;;5.25;;
78458;SDS011;67753;42.684;23.330;2023-04-23T12:02:35;5.38;;;4.88;;
78458;SDS011;67753;42.684;23.330;2023-04-23T12:04:37;5.75;;;5.25;;
78458;SDS011;67753;42.684;23.330;2023-04-23T12:06:40;5.53;;;4.95;;
78458;SDS011;67753;42.684;23.330;2023-04-23T12:08:45;5.07;;;4.57;;